Time;durP1;ratioP1;P1;durP2;ratioP2;P2;SDS_P1;SDS_P2;PMS_P1;PMS_P2;Temp;Humidity;BMP_temperature;BMP_pressure;BME280_temperature;BME280_humidity;BME280_pressure;Samples;Min_cycle;Max_cycle;Signal;HPM_P1;HPM_P2
2022/05/02 00:05:23;;;;;;;;;;;;;;;16.11;45.54;99620.03;5203116;27;34953;-90
2022/05/02 00:11:37;;;;;;;;;;;;;;;16.02;45.81;99615.16;5200570;27;34104;-90
2022/05/02 00:14:08;;;;;;;;;;;;;;;16.11;45.52;99606.94;5197469;27;33920;-90
2022/05/02 00:16:39;;;;;;;;;;;;;;;16.09;45.31;99603.56;5197020;27;34559;-89
2022/05/02 00:19:08;;;;;;;;;;;;;;;15.93;46.46;99605.88;5201051;27;33893;-90
2022/05/02 00:21:38;;;;;;;;;;;;;;;15.88;46.97;99610.41;5202368;27;33767;-90
2022/05/02 01:09:15;;;;;;;;;;;;;;;15.76;47.88;99619.56;5338234;26;20015;-90
2022/05/02 01:26:32;;;;;;;;;;;;;;;15.53;48.93;99620.31;5143841;27;34838;-91
2022/05/02 01:40:43;;;;;;;;;;;;;;;15.48;48.68;99619.63;5244747;27;20033;-91
2022/05/02 01:53:16;;;;;;;;;;;;;;;15.30;50.05;99642.03;5122099;27;33560;-90
2022/05/02 01:56:09;;;;;;;;;;;;;;;15.39;50.19;99645.22;5190974;27;33999;-90
2022/05/02 02:02:37;;;;;;;;;;;;;;;15.32;50.34;99635.00;5207776;27;36498;-90
2022/05/02 02:06:27;;;;;;;;;;;;;;;;;;;;;
2022/05/02 06:54:47;;;;;;;;;;;;;;;18.47;49.78;99671.53;5277891;27;32861;-90
2022/05/02 07:21:38;;;;;;;;;;;;;;;17.52;48.85;99673.03;5250750;27;32399;-91
2022/05/02 07:24:27;;;;;;;;;;;;;;;18.01;48.84;99679.69;5273704;27;34218;-90
2022/05/02 08:56:54;;;;;;;;;;;;;;;22.17;36.87;99641.19;5199930;27;20017;-91
2022/05/02 08:59:58;;;;;;;;;;;;;;;22.37;37.03;99648.78;5201717;27;32951;-92
2022/05/02 09:10:19;;;;;;;;;;;;;;;22.13;38.47;99645.81;5309288;27;34362;-93
2022/05/02 09:13:33;;;;;;;;;;;;;;;21.93;37.90;99643.53;5311117;27;34208;-91
2022/05/02 09:16:36;;;;;;;;;;;;;;;21.37;40.12;99643.31;5292111;27;33979;-91
2022/05/02 09:23:11;;;;;;;;;;;;;;;21.48;39.00;99632.16;5298418;27;34639;-92
2022/05/02 09:25:57;;;;;;;;;;;;;;;21.08;38.71;99635.31;5308810;27;32937;-91
2022/05/02 09:28:57;;;;;;;;;;;;;;;21.20;38.66;99632.91;5310073;27;33539;-92
2022/05/02 09:31:48;;;;;;;;;;;;;;;21.35;40.39;99633.78;5310543;27;34691;-91
2022/05/02 09:34:28;;;;;;;;;;;;;;;20.98;40.33;99634.13;5312282;26;33569;-92
2022/05/02 09:37:01;;;;;;;;;;;;;;;21.18;40.20;99635.63;5332050;26;34407;-91
2022/05/02 09:39:41;;;;;;;;;;;;;;;21.37;39.36;99637.19;5335128;26;34132;-92
2022/05/02 09:42:25;;;;;;;;;;;;;;;21.38;39.86;99634.44;5313551;26;33035;-93
2022/05/02 09:51:29;;;;;;;;;;;;;;;21.69;39.38;99638.78;5240384;27;34878;-91
2022/05/02 09:54:02;;;;;;;;;;;;;;;21.81;37.78;99633.72;5232073;27;34213;-91
2022/05/02 19:56:12;;;;;;;;;;;;;;;18.15;43.82;99468.22;5412086;26;19974;-92
2022/05/02 19:58:41;;;;;;;;;;;;;;;17.92;44.76;99478.84;5427639;26;34383;-90
2022/05/02 20:01:11;;;;;;;;;;;;;;;18.01;44.82;99484.63;5432243;26;33973;-92
2022/05/02 20:03:40;;;;;;;;;;;;;;;18.13;43.95;99484.88;5405934;26;34132;-90
2022/05/02 20:06:09;;;;;;;;;;;;;;;17.92;44.56;99485.88;5426721;26;33340;-91
2022/05/02 20:08:40;;;;;;;;;;;;;;;17.94;44.53;99477.94;5427574;26;33847;-90
2022/05/02 20:11:10;;;;;;;;;;;;;;;17.85;44.84;99484.47;5426543;26;33760;-93
2022/05/02 20:13:43;;;;;;;;;;;;;;;17.83;44.93;99479.31;5432324;26;33864;-90
2022/05/02 20:16:11;;;;;;;;;;;;;;;17.89;44.93;99478.16;5426443;26;33447;-90
2022/05/02 20:18:40;;;;;;;;;;;;;;;17.85;44.27;99471.34;5427386;26;33906;-89
2022/05/02 20:21:08;;;;;;;;;;;;;;;17.57;44.97;99480.47;5427380;26;34342;-92
2022/05/02 20:23:37;;;;;;;;;;;;;;;17.38;45.61;99482.22;5427800;26;34564;-91
2022/05/02 20:26:05;;;;;;;;;;;;;;;17.45;45.42;99479.25;5431846;26;33513;-90
2022/05/02 20:28:34;;;;;;;;;;;;;;;17.51;45.49;99478.09;5429567;26;35377;-90
2022/05/02 20:31:04;;;;;;;;;;;;;;;17.63;45.40;99474.06;5426795;26;34988;-91
2022/05/02 20:36:44;;;;;;;;;;;;;;;17.59;45.15;99467.25;5426825;26;33881;-92
2022/05/02 20:39:12;;;;;;;;;;;;;;;17.26;45.99;99473.97;5426732;26;33950;-91
2022/05/02 20:41:42;;;;;;;;;;;;;;;17.26;46.15;99475.72;5426632;26;34149;-90
2022/05/02 20:44:12;;;;;;;;;;;;;;;17.31;46.01;99476.38;5433228;26;34244;-90
2022/05/02 20:46:42;;;;;;;;;;;;;;;17.35;45.89;99484.94;5426734;26;35056;-92
2022/05/02 20:49:11;;;;;;;;;;;;;;;17.28;46.28;99482.63;5426783;26;34862;-90
2022/05/02 20:51:42;;;;;;;;;;;;;;;17.32;46.06;99480.69;5427523;26;34234;-91
2022/05/02 20:54:11;;;;;;;;;;;;;;;17.35;46.20;99474.47;5427507;26;34205;-91
2022/05/02 20:56:39;;;;;;;;;;;;;;;17.37;46.00;99472.63;5431938;26;33385;-90
2022/05/02 20:59:08;;;;;;;;;;;;;;;17.31;46.00;99483.41;5427083;26;34658;-92
2022/05/02 21:01:39;;;;;;;;;;;;;;;17.23;46.26;99476.72;5427999;26;33721;-91
2022/05/02 21:04:43;;;;;;;;;;;;;;;17.22;46.52;99472.38;5427021;26;36387;-93
2022/05/02 21:57:54;;;;;;;;;;;;;;;16.32;50.87;99457.84;5289125;27;36052;-90
